Airfield :
LOGIN :

Register | Disclaimer

   EN    FR    IT 

 










Legend :    VFR   Marginal VFR   IFR   Intensive IFR   Very Intensive IFR
Visi :
Ceiling :
>= 8 km
>= 3000ft
5 to 8 km
1000 to 3000 ft
1500m to 5 km
500 to 1000 ft
800 to 1500m
200 to 500 ft
< 800m
< 200 ft
Symbols :   Thunderstorms  Fog  Heavy snow  Heavy precipitations  Wind > 20 kt
SIGMETs :     Misc.  Thunderstorms  Icing  Turbulence  Mountain Waves  Volcanic Ashes






- Airport Elevation : 187 ft


ETNW - Wunstorf AB

CURRENT METAR :
  • 151320Z 15004KT 9999 FEW060 SCT220 26/11 Q1012 BLU+BLU+

EXPIRED METARs :
  • 151220Z VRB02KT 9999 FEW055 SCT300 25/11 Q1012 BLU+BLU+
  • 151120Z 22005KT 9999 SCT050 24/10 Q1013 BLU+BLU+
  • 151020Z 25004KT 9999 SCT050 23/10 Q1013 BLU+BLU+
  • 150920Z 28003KT 9999 FEW050 23/10 Q1013 BLU+BLU+

TAF TAF ETNW
Valid from the 15 at 11:00 until the 16 at 11:00 UTC


151018Z 1511/1611 20005KT 9999 NSW FEW050
BECMG 1514/1516 10005KT 9999 NSW SCT045
TEMPO 1523/1605 13015KT 3000 TSRA SCT020 BKN040CB
BECMG 1605/1607 23010KT 9999 NSW FEW030



MET'MAP, your aeronautical weather chart ! - Copyright ORBIFLY December 2007 - Disclaimer

ORBIFLY MET'MAP TEAM :

Programming & Development : Alexandra Zaïnal
Original concept : Baudouin d'Aumeries
Technical & hardware support : Manuel Goepfert
Assistance : Marc-Olivier Méhu




SOURCES & CREDITS :

   NOAA